Time;durP1;ratioP1;P1;durP2;ratioP2;P2;SDS_P1;SDS_P2;PMS_P1;PMS_P2;Temp;Humidity;BMP_temperature;BMP_pressure;BME280_temperature;BME280_humidity;BME280_pressure;Samples;Min_cycle;Max_cycle;Signal;HPM_P1;HPM_P2
2022/01/10 00:00:06;;;;;;;0.00;0.00;;;7.90;99.90;;;;;;6215581;23;20628;-75
2022/01/10 00:02:33;;;;;;;0.00;0.00;;;7.90;99.90;;;;;;6216576;23;20062;-75
2022/01/10 00:04:58;;;;;;;;;;;7.80;99.90;;;;;;6216844;23;20004;-74
2022/01/10 00:07:24;;;;;;;0.00;0.00;;;7.80;99.90;;;;;;6214175;23;19911;-77
2022/01/10 00:09:50;;;;;;;0.00;0.00;;;7.80;99.90;;;;;;6212935;23;20008;-74
2022/01/10 00:12:15;;;;;;;0.00;0.00;;;7.90;99.90;;;;;;6214542;23;20001;-74
2022/01/10 00:14:41;;;;;;;0.00;0.00;;;8.00;99.90;;;;;;6212914;23;20047;-74
2022/01/10 00:17:07;;;;;;;0.00;0.00;;;8.00;99.90;;;;;;6214385;23;19997;-75
2022/01/10 00:19:33;;;;;;;0.00;0.00;;;8.00;99.90;;;;;;6213809;23;20071;-75
2022/01/10 00:21:58;;;;;;;0.00;0.00;;;8.00;99.90;;;;;;6214226;23;20085;-74
2022/01/10 00:24:24;;;;;;;0.00;0.00;;;8.00;99.90;;;;;;6214081;23;20012;-75
2022/01/10 00:26:50;;;;;;;0.00;0.00;;;8.00;99.90;;;;;;6213653;23;20360;-74
2022/01/10 00:29:15;;;;;;;0.00;0.00;;;8.10;99.90;;;;;;6214012;23;20020;-74
2022/01/10 00:31:41;;;;;;;0.00;0.00;;;8.10;99.90;;;;;;6213658;23;20007;-74
2022/01/10 00:34:07;;;;;;;0.00;0.00;;;8.10;99.90;;;;;;6212466;23;20008;-75
2022/01/10 00:36:33;;;;;;;0.00;0.00;;;8.20;99.90;;;;;;6212323;23;20496;-74
2022/01/10 00:38:58;;;;;;;0.00;0.00;;;8.20;99.90;;;;;;6213778;23;20005;-74
2022/01/10 00:41:24;;;;;;;0.00;0.00;;;8.20;99.90;;;;;;6212847;23;20031;-75
2022/01/10 00:43:51;;;;;;;0.00;0.00;;;8.20;99.90;;;;;;6213761;23;20369;-74
2022/01/10 00:46:17;;;;;;;0.00;0.00;;;8.20;99.90;;;;;;6211048;23;20035;-74
2022/01/10 00:48:43;;;;;;;;;;;8.30;99.90;;;;;;6214370;23;20028;-74
2022/01/10 00:51:09;;;;;;;0.00;0.00;;;8.20;99.90;;;;;;6212138;23;20348;-74
2022/01/10 00:53:34;;;;;;;0.00;0.00;;;8.20;99.90;;;;;;6213757;23;19996;-74
2022/01/10 00:56:01;;;;;;;0.00;0.00;;;8.20;99.90;;;;;;6213101;23;20058;-74
2022/01/10 00:58:26;;;;;;;;;;;8.20;99.90;;;;;;6212896;23;20036;-75
2022/01/10 01:00:52;;;;;;;0.00;0.00;;;8.20;99.90;;;;;;6212264;23;19954;-75
2022/01/10 01:03:18;;;;;;;0.00;0.00;;;8.00;99.90;;;;;;6211469;23;20008;-73
2022/01/10 01:05:45;;;;;;;0.00;0.00;;;8.00;99.90;;;;;;6213854;23;20029;-74
2022/01/10 01:08:12;;;;;;;0.00;0.00;;;8.00;99.90;;;;;;6210655;23;20336;-74
2022/01/10 01:24:03;;;;;;;0.00;0.00;;;8.10;99.90;;;;;;6216509;23;20015;-74
2022/01/10 01:26:32;;;;;;;0.00;0.00;;;8.00;99.90;;;;;;6214955;23;20082;-74
2022/01/10 01:28:58;;;;;;;0.00;0.00;;;8.10;99.90;;;;;;6215499;23;20035;-75
2022/01/10 01:31:24;;;;;;;0.00;0.00;;;8.10;99.90;;;;;;6211970;23;20009;-74
2022/01/10 01:33:50;;;;;;;0.00;0.00;;;8.20;99.90;;;;;;6211091;23;20329;-74
2022/01/10 01:36:21;;;;;;;0.00;0.00;;;8.20;99.90;;;;;;6213811;23;20016;-75
2022/01/10 01:38:46;;;;;;;0.00;0.00;;;8.20;99.90;;;;;;6213831;23;20020;-75
2022/01/10 01:42:01;;;;;;;0.00;0.00;;;8.20;99.90;;;;;;6211328;23;20264;-75
2022/01/10 01:43:59;;;;;;;0.00;0.00;;;8.30;99.90;;;;;;6201943;23;20000;-74
2022/01/10 01:46:26;;;;;;;0.00;0.00;;;8.20;99.90;;;;;;6212428;23;20452;-74
2022/01/10 01:48:53;;;;;;;0.00;0.00;;;8.20;99.90;;;;;;6211917;23;20009;-75
2022/01/10 01:51:20;;;;;;;0.00;0.00;;;8.20;99.90;;;;;;6212877;23;20000;-74
2022/01/10 01:53:47;;;;;;;0.00;0.00;;;8.10;99.90;;;;;;6212282;23;19997;-76
2022/01/10 01:56:14;;;;;;;0.00;0.00;;;8.20;99.90;;;;;;6213098;23;20047;-74
2022/01/10 01:58:42;;;;;;;0.00;0.00;;;8.10;99.90;;;;;;6213241;23;20012;-75
2022/01/10 02:01:08;;;;;;;0.00;0.00;;;8.00;99.90;;;;;;6211762;23;20008;-74
2022/01/10 02:03:37;;;;;;;;;;;8.00;99.90;;;;;;6212790;23;20036;-75
2022/01/10 02:06:03;;;;;;;0.00;0.00;;;8.00;99.90;;;;;;6214383;23;19904;-74
2022/01/10 02:08:29;;;;;;;0.00;0.00;;;8.10;99.90;;;;;;6214109;23;20020;-73
2022/01/10 02:10:55;;;;;;;0.00;0.00;;;8.10;99.90;;;;;;6214993;23;20004;-74
2022/01/10 02:13:21;;;;;;;0.00;0.00;;;8.10;99.90;;;;;;6212109;23;20001;-74
2022/01/10 02:15:51;;;;;;;;;;;8.20;99.90;;;;;;6213789;23;20370;-74
2022/01/10 02:18:19;;;;;;;0.00;0.00;;;8.30;99.90;;;;;;6213946;23;19954;-74
2022/01/10 02:20:46;;;;;;;0.00;0.00;;;8.20;99.90;;;;;;6212755;23;20473;-75
2022/01/10 02:23:16;;;;;;;0.00;0.00;;;8.20;99.90;;;;;;6212052;23;20056;-74
2022/01/10 02:25:45;;;;;;;0.00;0.00;;;8.20;99.90;;;;;;6213655;23;20455;-75
2022/01/10 02:28:11;;;;;;;0.00;0.00;;;8.20;99.90;;;;;;6210104;23;20051;-74
2022/01/10 02:30:37;;;;;;;0.00;0.00;;;8.20;99.90;;;;;;6212056;23;20000;-74
2022/01/10 02:33:05;;;;;;;0.00;0.00;;;8.10;99.90;;;;;;6211321;23;19997;-73
2022/01/10 02:35:38;;;;;;;0.00;0.00;;;8.00;99.90;;;;;;6212106;23;20421;-75
2022/01/10 02:38:04;;;;;;;0.00;0.00;;;7.90;99.90;;;;;;6210216;23;20332;-75
2022/01/10 02:40:32;;;;;;;0.00;0.00;;;8.00;99.90;;;;;;6209494;23;20055;-75
2022/01/10 02:42:58;;;;;;;0.00;0.00;;;8.10;99.90;;;;;;6213000;23;20653;-74
2022/01/10 02:45:25;;;;;;;0.00;0.00;;;8.10;99.90;;;;;;6212416;23;20009;-73
2022/01/10 02:47:51;;;;;;;0.00;0.00;;;8.10;99.90;;;;;;6213189;23;20027;-74
2022/01/10 02:50:18;;;;;;;0.00;0.00;;;8.10;99.90;;;;;;6213927;23;20000;-74
2022/01/10 02:52:45;;;;;;;0.00;0.00;;;8.20;99.90;;;;;;6212074;23;20003;-74
2022/01/10 02:55:11;;;;;;;0.00;0.00;;;8.20;99.90;;;;;;6213214;23;20671;-74
2022/01/10 02:57:37;;;;;;;0.00;0.00;;;8.20;99.90;;;;;;6212609;23;20332;-74
2022/01/10 03:00:06;;;;;;;;;;;7.90;99.90;;;;;;6211292;23;20266;-74
2022/01/10 03:02:34;;;;;;;0.00;0.00;;;7.80;99.90;;;;;;6210997;23;19927;-75
2022/01/10 03:05:00;;;;;;;0.00;0.00;;;7.70;99.90;;;;;;6211784;23;20067;-74
2022/01/10 03:07:27;;;;;;;0.00;0.00;;;7.70;99.90;;;;;;6210550;23;20073;-74
2022/01/10 03:09:53;;;;;;;0.00;0.00;;;7.60;99.90;;;;;;6210725;23;20010;-76
2022/01/10 03:12:19;;;;;;;;;;;7.50;99.90;;;;;;6212152;23;20120;-74
2022/01/10 03:14:45;;;;;;;0.00;0.00;;;7.60;99.90;;;;;;6210327;23;19939;-75
2022/01/10 03:17:11;;;;;;;;;;;7.70;99.90;;;;;;6212023;23;19997;-74
2022/01/10 03:19:38;;;;;;;0.00;0.00;;;7.80;99.90;;;;;;6210425;23;20213;-74
2022/01/10 03:22:05;;;;;;;0.00;0.00;;;7.80;99.90;;;;;;6210852;23;20421;-74
2022/01/10 03:24:31;;;;;;;0.00;0.00;;;7.90;99.90;;;;;;6211855;23;20005;-73
2022/01/10 03:26:56;;;;;;;0.00;0.00;;;7.90;99.90;;;;;;6210540;23;20463;-74
2022/01/10 03:29:22;;;;;;;0.00;0.00;;;7.90;99.90;;;;;;6211343;23;20001;-75
2022/01/10 03:31:49;;;;;;;0.00;0.00;;;8.00;99.90;;;;;;6210192;23;20030;-75
2022/01/10 03:34:15;;;;;;;0.00;0.00;;;8.10;99.90;;;;;;6209687;23;20016;-75
2022/01/10 03:36:42;;;;;;;0.00;0.00;;;8.10;99.90;;;;;;6211207;23;20020;-74
2022/01/10 03:39:09;;;;;;;0.00;0.00;;;8.10;99.90;;;;;;6211879;23;20005;-73
2022/01/10 03:41:38;;;;;;;0.00;0.00;;;8.10;99.90;;;;;;6209938;23;20072;-74
2022/01/10 03:44:05;;;;;;;0.00;0.00;;;8.10;99.90;;;;;;6211976;23;20479;-77
2022/01/10 03:46:32;;;;;;;0.00;0.00;;;8.10;99.90;;;;;;6208743;23;20306;-76
2022/01/10 03:48:59;;;;;;;0.00;0.00;;;8.10;99.90;;;;;;6212605;23;19997;-74
2022/01/10 03:51:25;;;;;;;0.00;0.00;;;8.10;99.90;;;;;;6210844;23;20000;-75
2022/01/10 03:53:51;;;;;;;0.00;0.00;;;8.10;99.90;;;;;;6208600;23;20004;-75
2022/01/10 03:56:17;;;;;;;0.00;0.00;;;8.10;99.90;;;;;;6211679;23;20000;-76
2022/01/10 03:58:42;;;;;;;0.00;0.00;;;8.00;99.90;;;;;;6211872;23;20479;-75
2022/01/10 04:01:09;;;;;;;0.00;0.00;;;8.00;99.90;;;;;;6209377;23;20443;-76
2022/01/10 04:03:37;;;;;;;0.00;0.00;;;7.80;99.90;;;;;;6209175;23;20004;-74
2022/01/10 04:06:03;;;;;;;0.00;0.00;;;7.60;99.90;;;;;;6212074;23;20008;-75
2022/01/10 04:08:29;;;;;;;0.00;0.00;;;7.60;99.90;;;;;;6212834;23;20005;-75
2022/01/10 04:10:54;;;;;;;0.00;0.00;;;7.70;99.90;;;;;;6213589;23;19996;-74
2022/01/10 04:13:20;;;;;;;0.00;0.00;;;7.80;99.90;;;;;;6210639;23;20205;-74
2022/01/10 04:15:46;;;;;;;0.00;0.00;;;7.90;99.90;;;;;;6213066;23;20031;-74
2022/01/10 04:18:12;;;;;;;0.00;0.00;;;7.90;99.90;;;;;;6213227;23;20039;-75
2022/01/10 04:20:37;;;;;;;0.00;0.00;;;7.90;99.90;;;;;;6211731;23;20083;-74
2022/01/10 04:23:03;;;;;;;0.00;0.00;;;7.80;99.90;;;;;;6213595;23;20000;-75
2022/01/10 04:25:29;;;;;;;0.00;0.00;;;7.80;99.90;;;;;;6213874;23;20481;-75
2022/01/10 04:27:55;;;;;;;0.00;0.00;;;7.70;99.90;;;;;;6212889;23;20005;-75
2022/01/10 04:30:21;;;;;;;;;;;7.70;99.90;;;;;;6213811;23;20441;-74
2022/01/10 04:32:47;;;;;;;0.00;0.00;;;7.70;99.90;;;;;;6211842;23;19919;-75
2022/01/10 04:35:12;;;;;;;0.00;0.00;;;7.70;99.90;;;;;;6212929;23;20011;-74
2022/01/10 04:37:39;;;;;;;0.00;0.00;;;7.70;99.90;;;;;;6214509;23;20084;-74
2022/01/10 04:40:06;;;;;;;0.00;0.00;;;7.70;99.90;;;;;;6213228;23;20027;-74
2022/01/10 04:42:32;;;;;;;0.00;0.00;;;7.70;99.90;;;;;;6212538;23;19997;-74
2022/01/10 04:44:58;;;;;;;0.00;0.00;;;7.60;99.90;;;;;;6218765;23;20011;-74
2022/01/10 04:47:24;;;;;;;0.00;0.00;;;7.50;99.90;;;;;;6210556;23;20418;-73
2022/01/10 04:52:24;;;;;;;0.00;0.00;;;7.50;99.90;;;;;;6216119;23;20004;-74
2022/01/10 04:54:50;;;;;;;0.00;0.00;;;7.50;99.90;;;;;;6213312;23;20047;-74
2022/01/10 04:57:16;;;;;;;0.00;0.00;;;7.40;99.90;;;;;;6216147;23;20000;-75
2022/01/10 04:59:42;;;;;;;0.00;0.00;;;7.50;99.90;;;;;;6212482;23;20019;-73
2022/01/10 05:02:08;;;;;;;0.00;0.00;;;7.50;99.90;;;;;;6213843;23;20520;-73
2022/01/10 05:04:34;;;;;;;0.00;0.00;;;7.60;99.90;;;;;;6213524;23;20008;-73
2022/01/10 05:07:00;;;;;;;0.00;0.00;;;7.50;99.90;;;;;;6210682;23;20008;-74
2022/01/10 05:09:25;;;;;;;;;;;7.50;99.90;;;;;;6213470;23;20070;-74
2022/01/10 05:11:51;;;;;;;0.00;0.00;;;7.50;99.90;;;;;;6213884;23;20300;-74
2022/01/10 05:14:17;;;;;;;0.00;0.00;;;7.40;99.90;;;;;;6212364;23;20376;-73
2022/01/10 05:16:43;;;;;;;0.00;0.00;;;7.50;99.90;;;;;;6213087;23;20423;-73
2022/01/10 05:19:09;;;;;;;0.00;0.00;;;7.50;99.90;;;;;;6212812;23;20066;-73
2022/01/10 05:21:36;;;;;;;0.00;0.00;;;7.40;99.90;;;;;;6212374;23;20024;-74
2022/01/10 05:24:02;;;;;;;0.00;0.00;;;7.30;99.90;;;;;;6213786;23;20008;-74
2022/01/10 05:26:27;;;;;;;0.00;0.00;;;7.30;99.90;;;;;;6212307;23;20001;-74
2022/01/10 05:28:55;;;;;;;0.00;0.00;;;7.40;99.90;;;;;;6214764;23;20035;-74
2022/01/10 05:31:21;;;;;;;0.00;0.00;;;7.40;99.90;;;;;;6216232;23;20000;-73
2022/01/10 05:33:47;;;;;;;0.00;0.00;;;7.40;99.90;;;;;;6215045;23;20095;-74
2022/01/10 05:36:13;;;;;;;0.00;0.00;;;7.40;99.90;;;;;;6211176;23;20329;-74
2022/01/10 05:38:39;;;;;;;0.00;0.00;;;7.40;99.90;;;;;;6214457;23;19996;-75
2022/01/10 05:41:05;;;;;;;0.00;0.00;;;7.40;99.90;;;;;;6212967;23;20001;-73
2022/01/10 05:43:31;;;;;;;0.00;0.00;;;7.50;99.90;;;;;;6215166;23;20088;-73
2022/01/10 05:45:57;;;;;;;;;;;7.50;99.90;;;;;;6214078;23;20001;-72
2022/01/10 05:48:29;;;;;;;0.00;0.00;;;7.50;99.90;;;;;;6214020;23;19958;-73
2022/01/10 05:50:58;;;;;;;0.00;0.00;;;7.50;99.90;;;;;;6213349;23;20004;-74
2022/01/10 05:53:23;;;;;;;0.00;0.00;;;7.50;99.90;;;;;;6212436;23;20352;-74
2022/01/10 05:55:49;;;;;;;0.00;0.00;;;7.40;99.90;;;;;;6212575;23;20088;-73
2022/01/10 05:58:16;;;;;;;0.00;0.00;;;7.40;99.90;;;;;;6212470;23;20032;-73
2022/01/10 06:00:42;;;;;;;0.00;0.00;;;7.40;99.90;;;;;;6211094;23;20451;-73
2022/01/10 06:03:08;;;;;;;0.00;0.00;;;7.40;99.90;;;;;;6211218;23;20001;-74
2022/01/10 06:05:34;;;;;;;0.00;0.00;;;7.40;99.90;;;;;;6212317;23;20004;-73
2022/01/10 06:08:02;;;;;;;0.00;0.00;;;7.40;99.90;;;;;;6211591;23;20004;-73
2022/01/10 06:10:29;;;;;;;0.00;0.00;;;7.40;99.90;;;;;;6212790;23;20059;-73
2022/01/10 06:12:55;;;;;;;0.00;0.00;;;7.50;99.90;;;;;;6211251;23;20000;-74
2022/01/10 06:15:22;;;;;;;0.00;0.00;;;7.40;99.90;;;;;;6213314;23;20443;-74
2022/01/10 06:17:48;;;;;;;0.00;0.00;;;7.40;99.90;;;;;;6212459;23;20001;-74
2022/01/10 06:20:14;;;;;;;0.00;0.00;;;7.40;99.90;;;;;;6209474;23;20736;-73
2022/01/10 06:22:39;;;;;;;0.00;0.00;;;7.50;99.90;;;;;;6212589;23;20373;-74
2022/01/10 06:25:08;;;;;;;0.00;0.00;;;7.40;99.90;;;;;;6213062;23;20001;-73
2022/01/10 06:27:33;;;;;;;0.00;0.00;;;7.50;99.90;;;;;;6211842;23;20412;-73
2022/01/10 06:29:59;;;;;;;0.00;0.00;;;7.60;99.90;;;;;;6212995;23;20005;-74
2022/01/10 06:32:25;;;;;;;0.00;0.00;;;7.60;99.90;;;;;;6213493;23;20123;-74
2022/01/10 06:34:52;;;;;;;0.00;0.00;;;7.70;99.90;;;;;;6211723;23;20328;-73
2022/01/10 06:37:19;;;;;;;0.00;0.00;;;7.70;99.90;;;;;;6212954;23;20104;-74
2022/01/10 06:39:45;;;;;;;0.00;0.00;;;7.70;99.90;;;;;;6211007;23;20001;-73
2022/01/10 06:42:11;;;;;;;0.00;0.00;;;7.70;99.90;;;;;;6213245;23;20003;-73
2022/01/10 06:44:37;;;;;;;0.00;0.00;;;7.70;99.90;;;;;;6210766;23;20008;-74
2022/01/10 06:47:03;;;;;;;0.00;0.00;;;7.60;99.90;;;;;;6212083;23;20040;-73
2022/01/10 06:49:29;;;;;;;;;;;7.60;99.90;;;;;;6213684;23;20004;-75
2022/01/10 06:51:55;;;;;;;0.00;0.00;;;7.50;99.90;;;;;;6211633;23;20002;-74
2022/01/10 06:54:21;;;;;;;0.00;0.00;;;7.40;99.90;;;;;;6210307;23;20007;-74
2022/01/10 06:56:46;;;;;;;0.00;0.00;;;7.40;99.90;;;;;;6210149;23;20515;-73
2022/01/10 06:59:12;;;;;;;0.00;0.00;;;7.60;99.90;;;;;;6212524;23;20024;-74
2022/01/10 07:01:38;;;;;;;0.00;0.00;;;7.50;99.90;;;;;;6212903;23;20034;-75
2022/01/10 07:04:04;;;;;;;0.00;0.00;;;7.50;99.90;;;;;;6212698;23;20004;-74
2022/01/10 07:06:30;;;;;;;0.00;0.00;;;7.50;99.90;;;;;;6211556;23;20004;-74
2022/01/10 07:08:55;;;;;;;0.00;0.00;;;7.50;99.90;;;;;;6211981;23;20397;-73
2022/01/10 07:11:21;;;;;;;0.00;0.00;;;7.50;99.90;;;;;;6211217;23;20036;-73
2022/01/10 07:13:47;;;;;;;0.00;0.00;;;7.60;99.90;;;;;;6210585;23;19993;-74
2022/01/10 07:16:13;;;;;;;0.00;0.00;;;7.60;99.90;;;;;;6212528;23;20055;-73
2022/01/10 07:18:39;;;;;;;0.00;0.00;;;7.50;99.90;;;;;;6213018;23;20008;-73
2022/01/10 07:21:05;;;;;;;0.00;0.00;;;7.60;99.90;;;;;;6212830;23;19992;-74
2022/01/10 07:23:31;;;;;;;;;;;7.60;99.90;;;;;;6214561;23;20000;-73
2022/01/10 07:25:56;;;;;;;0.00;0.00;;;7.50;99.90;;;;;;6212784;23;19911;-74
2022/01/10 07:28:22;;;;;;;0.00;0.00;;;7.50;99.90;;;;;;6214225;23;20005;-73
2022/01/10 07:30:49;;;;;;;0.00;0.00;;;7.50;99.90;;;;;;6212583;23;20019;-73
2022/01/10 07:33:15;;;;;;;0.00;0.00;;;7.50;99.90;;;;;;6211518;23;19997;-74
2022/01/10 07:35:41;;;;;;;0.00;0.00;;;7.40;99.90;;;;;;6213359;23;20039;-74
2022/01/10 07:38:07;;;;;;;0.00;0.00;;;7.40;99.90;;;;;;6214849;23;20003;-72
2022/01/10 07:40:33;;;;;;;0.00;0.00;;;7.50;99.90;;;;;;6214484;23;20080;-72
2022/01/10 07:42:59;;;;;;;0.00;0.00;;;7.60;99.90;;;;;;6219073;23;20003;-72
2022/01/10 07:45:24;;;;;;;0.00;0.00;;;7.50;99.90;;;;;;6216763;23;20325;-73
2022/01/10 07:47:51;;;;;;;0.00;0.00;;;7.40;99.90;;;;;;6213983;23;20010;-73
2022/01/10 07:50:17;;;;;;;0.00;0.00;;;7.30;99.90;;;;;;6214447;23;20049;-73
2022/01/10 07:52:43;;;;;;;0.00;0.00;;;7.40;99.90;;;;;;6212526;23;20055;-72
2022/01/10 07:55:09;;;;;;;0.00;0.00;;;7.40;99.90;;;;;;6213212;23;20008;-72
2022/01/10 07:57:36;;;;;;;0.00;0.00;;;7.20;99.90;;;;;;6215141;23;19997;-71
2022/01/10 08:00:05;;;;;;;0.00;0.00;;;7.30;99.90;;;;;;6214818;23;20000;-71
2022/01/10 08:02:31;;;;;;;0.00;0.00;;;7.40;99.90;;;;;;6215649;23;20024;-72
2022/01/10 08:04:57;;;;;;;0.00;0.00;;;7.40;99.90;;;;;;6216361;23;20005;-72
2022/01/10 08:07:22;;;;;;;0.00;0.00;;;7.40;99.90;;;;;;6212059;23;20040;-71
2022/01/10 08:09:48;;;;;;;0.00;0.00;;;7.50;99.90;;;;;;6211113;23;20056;-72
2022/01/10 08:12:14;;;;;;;0.00;0.00;;;7.50;99.90;;;;;;6212153;23;20000;-72
2022/01/10 08:14:40;;;;;;;0.00;0.00;;;7.50;99.90;;;;;;6212149;23;20104;-73
2022/01/10 08:17:05;;;;;;;0.00;0.00;;;7.60;99.90;;;;;;6211467;23;20000;-72
2022/01/10 08:19:33;;;;;;;0.00;0.00;;;7.60;99.90;;;;;;6210592;23;20079;-72
2022/01/10 08:22:00;;;;;;;0.00;0.00;;;7.70;99.90;;;;;;6214875;23;20066;-73
2022/01/10 08:24:27;;;;;;;0.00;0.00;;;7.70;99.90;;;;;;6215329;23;20007;-74
2022/01/10 08:26:55;;;;;;;0.00;0.00;;;7.70;99.90;;;;;;6213290;23;20013;-73
2022/01/10 08:29:22;;;;;;;0.00;0.00;;;7.70;99.90;;;;;;6211212;23;20075;-73
2022/01/10 08:31:48;;;;;;;0.00;0.00;;;7.70;99.90;;;;;;6212264;23;20116;-73
2022/01/10 08:34:14;;;;;;;0.00;0.00;;;7.80;99.90;;;;;;6213510;23;20068;-73
2022/01/10 08:36:40;;;;;;;0.00;0.00;;;7.80;99.90;;;;;;6211153;23;20020;-74
2022/01/10 08:39:07;;;;;;;0.00;0.00;;;7.80;99.90;;;;;;6213659;23;20495;-74
2022/01/10 08:41:35;;;;;;;0.00;0.00;;;7.70;99.90;;;;;;6208960;23;20055;-73
2022/01/10 08:44:04;;;;;;;0.00;0.00;;;7.70;99.90;;;;;;6211706;23;20027;-73
2022/01/10 08:46:31;;;;;;;0.00;0.00;;;7.60;99.90;;;;;;6211507;23;20000;-73
2022/01/10 08:48:56;;;;;;;;;;;7.60;99.90;;;;;;6211874;23;20066;-71
2022/01/10 08:51:23;;;;;;;0.00;0.00;;;7.50;99.90;;;;;;6214935;23;19907;-69
2022/01/10 08:53:49;;;;;;;0.00;0.00;;;7.60;99.90;;;;;;6213537;23;20075;-73
2022/01/10 08:56:18;;;;;;;0.00;0.00;;;7.70;99.90;;;;;;6182270;23;20127;-72
2022/01/10 08:58:44;;;;;;;0.00;0.00;;;7.70;99.90;;;;;;6210634;23;20008;-70
2022/01/10 09:01:09;;;;;;;;;;;7.70;99.90;;;;;;6209444;23;20068;-72
2022/01/10 09:03:36;;;;;;;0.00;0.00;;;7.80;99.90;;;;;;6211721;23;19969;-73
2022/01/10 09:06:02;;;;;;;0.00;0.00;;;7.80;99.90;;;;;;6208073;23;20035;-72
2022/01/10 09:08:33;;;;;;;0.00;0.00;;;8.00;99.90;;;;;;6210322;23;20004;-72
2022/01/10 09:11:00;;;;;;;0.00;0.00;;;7.90;99.90;;;;;;6211369;23;20000;-72
2022/01/10 09:13:27;;;;;;;0.00;0.00;;;7.90;99.90;;;;;;6211154;23;20071;-72
2022/01/10 09:15:52;;;;;;;;;;;8.00;99.90;;;;;;6213023;23;20016;-71
2022/01/10 09:18:18;;;;;;;0.00;0.00;;;8.10;99.90;;;;;;6211754;23;19900;-72
2022/01/10 09:20:44;;;;;;;0.00;0.00;;;8.10;99.90;;;;;;6212085;23;20012;-71
2022/01/10 09:23:11;;;;;;;0.00;0.00;;;8.00;99.90;;;;;;6213390;23;20035;-72
2022/01/10 09:25:37;;;;;;;0.00;0.00;;;8.00;99.90;;;;;;6212445;23;20011;-70
2022/01/10 09:28:03;;;;;;;0.00;0.00;;;8.20;99.90;;;;;;6212627;23;20028;-72
2022/01/10 09:30:29;;;;;;;0.00;0.00;;;8.20;99.90;;;;;;6212538;23;20429;-72
2022/01/10 09:32:56;;;;;;;0.00;0.00;;;8.20;99.90;;;;;;6211609;23;19992;-71
2022/01/10 09:35:22;;;;;;;;;;;8.40;99.90;;;;;;6213050;23;20020;-72
2022/01/10 09:37:48;;;;;;;0.00;0.00;;;8.50;99.90;;;;;;6209429;23;19945;-71
2022/01/10 09:40:14;;;;;;;;;;;8.50;99.90;;;;;;6212045;23;20026;-70
2022/01/10 09:42:40;;;;;;;0.00;0.00;;;8.50;99.90;;;;;;6213239;23;20352;-72
2022/01/10 09:45:07;;;;;;;0.00;0.00;;;8.60;99.90;;;;;;6212906;23;20028;-70
2022/01/10 09:47:34;;;;;;;0.00;0.00;;;8.70;99.90;;;;;;6212272;23;20052;-70
2022/01/10 09:50:00;;;;;;;0.00;0.00;;;8.80;99.90;;;;;;6211677;23;20007;-71
2022/01/10 09:52:25;;;;;;;;;;;9.00;99.90;;;;;;6212688;23;20515;-71
2022/01/10 09:54:53;;;;;;;0.00;0.00;;;8.90;99.90;;;;;;6214989;23;19900;-72
2022/01/10 09:57:20;;;;;;;0.00;0.00;;;8.90;99.90;;;;;;6214644;23;19993;-72
2022/01/10 09:59:47;;;;;;;0.00;0.00;;;9.00;99.90;;;;;;6212883;23;20000;-71
2022/01/10 10:02:14;;;;;;;0.00;0.00;;;9.00;99.90;;;;;;6214950;23;20016;-71
2022/01/10 10:04:41;;;;;;;0.00;0.00;;;9.00;99.90;;;;;;6215391;23;20051;-72
2022/01/10 10:07:07;;;;;;;0.00;0.00;;;8.90;99.90;;;;;;6213742;23;20012;-72
2022/01/10 10:09:34;;;;;;;0.00;0.00;;;9.00;99.90;;;;;;6214718;23;20005;-71
2022/01/10 10:12:01;;;;;;;0.00;0.00;;;9.10;99.90;;;;;;6215664;23;20437;-71
2022/01/10 10:14:27;;;;;;;0.00;0.00;;;9.00;99.90;;;;;;6211028;23;20009;-72
2022/01/10 10:16:56;;;;;;;0.00;0.00;;;9.10;99.90;;;;;;6213184;23;20094;-71
2022/01/10 10:19:29;;;;;;;0.00;0.00;;;9.10;99.90;;;;;;6211027;23;20432;-71
2022/01/10 10:21:59;;;;;;;0.00;0.00;;;9.20;99.90;;;;;;6213315;23;20356;-71
2022/01/10 10:24:25;;;;;;;0.00;0.00;;;9.10;99.90;;;;;;6214983;23;20000;-71
2022/01/10 10:26:52;;;;;;;0.00;0.00;;;9.20;99.90;;;;;;6211004;23;20019;-72
2022/01/10 10:29:19;;;;;;;0.00;0.00;;;9.10;99.90;;;;;;6211826;23;20000;-71
2022/01/10 10:31:45;;;;;;;0.00;0.00;;;9.10;99.90;;;;;;6215950;23;20027;-72
2022/01/10 10:34:12;;;;;;;0.00;0.00;;;8.90;99.90;;;;;;6211512;23;20004;-71
2022/01/10 10:36:39;;;;;;;0.00;0.00;;;8.90;99.90;;;;;;6209633;23;20024;-73
2022/01/10 10:39:10;;;;;;;0.00;0.00;;;8.90;99.90;;;;;;6210788;23;20091;-71
2022/01/10 10:41:37;;;;;;;0.00;0.00;;;8.90;99.90;;;;;;6211636;23;20134;-72
2022/01/10 10:44:05;;;;;;;0.00;0.00;;;9.00;99.90;;;;;;6212587;23;20001;-72
2022/01/10 10:46:30;;;;;;;0.00;0.00;;;9.00;99.90;;;;;;6210384;23;20007;-73
2022/01/10 10:49:04;;;;;;;0.00;0.00;;;9.10;99.90;;;;;;6212075;23;20072;-73
2022/01/10 10:51:35;;;;;;;0.00;0.00;;;9.10;99.90;;;;;;6213147;23;20092;-71
2022/01/10 10:54:08;;;;;;;0.00;0.00;;;9.20;99.90;;;;;;6210567;23;20008;-73
2022/01/10 10:56:37;;;;;;;0.00;0.00;;;9.20;99.90;;;;;;6211590;23;20011;-71
2022/01/10 10:59:06;;;;;;;0.00;0.00;;;9.20;99.90;;;;;;6210716;23;20075;-72
2022/01/10 11:01:32;;;;;;;0.00;0.00;;;9.30;99.90;;;;;;6211132;23;20058;-73
2022/01/10 11:03:58;;;;;;;0.00;0.00;;;9.40;99.90;;;;;;6213151;23;20000;-73
2022/01/10 11:06:27;;;;;;;0.00;0.00;;;9.50;99.90;;;;;;6208801;23;20322;-72
2022/01/10 11:08:53;;;;;;;0.00;0.00;;;9.60;99.90;;;;;;6186145;23;20012;-69
2022/01/10 11:11:23;;;;;;;0.00;0.00;;;9.60;99.90;;;;;;6210597;23;20024;-71
2022/01/10 11:13:51;;;;;;;0.00;0.00;;;9.60;99.90;;;;;;6211636;23;20005;-71
2022/01/10 11:16:17;;;;;;;0.00;0.00;;;9.70;99.90;;;;;;6210601;23;20005;-72
2022/01/10 11:18:44;;;;;;;0.00;0.00;;;9.60;99.90;;;;;;6211493;23;20001;-71
2022/01/10 11:21:11;;;;;;;0.00;0.00;;;9.60;99.90;;;;;;6209728;23;20317;-73
2022/01/10 11:23:45;;;;;;;0.00;0.00;;;9.60;99.90;;;;;;6211678;23;20046;-71
2022/01/10 11:26:14;;;;;;;0.00;0.00;;;9.60;99.90;;;;;;6210753;23;20028;-73
2022/01/10 11:28:55;;;;;;;0.00;0.00;;;9.70;99.90;;;;;;6209792;23;20040;-74
2022/01/10 11:31:23;;;;;;;0.00;0.00;;;9.70;99.90;;;;;;6210517;23;20425;-73
2022/01/10 11:33:51;;;;;;;0.00;0.00;;;9.80;99.90;;;;;;6211034;23;20000;-70
2022/01/10 11:36:19;;;;;;;0.00;0.00;;;9.80;99.90;;;;;;6211395;23;20017;-71
2022/01/10 11:38:49;;;;;;;0.00;0.00;;;9.90;99.90;;;;;;6212198;23;20500;-72
2022/01/10 11:41:23;;;;;;;0.00;0.00;;;10.00;99.90;;;;;;6211039;23;20008;-72
2022/01/10 11:43:57;;;;;;;0.00;0.00;;;10.00;99.90;;;;;;6212506;23;20429;-72
2022/01/10 11:46:27;;;;;;;0.00;0.00;;;9.90;99.90;;;;;;6210917;23;20047;-71
2022/01/10 11:49:00;;;;;;;0.00;0.00;;;9.90;99.90;;;;;;6212603;23;20011;-72
2022/01/10 11:51:34;;;;;;;0.00;0.00;;;9.90;99.90;;;;;;6211228;23;20024;-72
2022/01/10 11:54:26;;;;;;;0.00;0.00;;;9.90;99.90;;;;;;6211301;23;20000;-73
2022/01/10 11:56:54;;;;;;;0.00;0.00;;;9.80;99.90;;;;;;6212057;23;20127;-71
2022/01/10 11:59:29;;;;;;;0.00;0.00;;;9.80;99.90;;;;;;6208749;23;20115;-72
2022/01/10 12:02:04;;;;;;;0.00;0.00;;;9.80;99.90;;;;;;6211661;23;20011;-72
2022/01/10 12:04:42;;;;;;;0.00;0.00;;;9.80;99.90;;;;;;6210812;23;20000;-73
2022/01/10 12:07:10;;;;;;;0.00;0.00;;;9.80;99.90;;;;;;6209942;23;20404;-72
2022/01/10 12:09:36;;;;;;;0.00;0.00;;;9.90;99.90;;;;;;6211047;23;20405;-71
2022/01/10 12:12:03;;;;;;;;;;;9.90;99.90;;;;;;6212708;23;20020;-73
2022/01/10 12:14:30;;;;;;;0.00;0.00;;;9.80;99.90;;;;;;6211047;23;20378;-72
2022/01/10 12:16:58;;;;;;;0.00;0.00;;;9.90;99.90;;;;;;6211300;23;20101;-72
2022/01/10 12:19:25;;;;;;;0.00;0.00;;;10.00;99.90;;;;;;6208290;23;20004;-71
2022/01/10 12:21:51;;;;;;;0.00;0.00;;;9.90;99.90;;;;;;6211447;23;20527;-71
2022/01/10 12:24:18;;;;;;;0.00;0.00;;;10.00;99.90;;;;;;6210048;23;20329;-72
2022/01/10 12:26:44;;;;;;;;;;;10.00;99.90;;;;;;6208490;23;20055;-72
2022/01/10 12:29:12;;;;;;;0.00;0.00;;;9.90;99.90;;;;;;6212442;23;19978;-75
2022/01/10 12:31:40;;;;;;;0.00;0.00;;;10.00;99.90;;;;;;6211753;23;20035;-74
2022/01/10 12:34:08;;;;;;;0.00;0.00;;;10.00;99.90;;;;;;6212038;23;20027;-72
2022/01/10 12:36:35;;;;;;;0.00;0.00;;;10.10;99.90;;;;;;6211663;23;20437;-73
2022/01/10 12:39:17;;;;;;;0.00;0.00;;;10.20;99.90;;;;;;6212499;23;20008;-73
2022/01/10 12:41:44;;;;;;;0.00;0.00;;;10.20;99.90;;;;;;6211816;23;20004;-74
2022/01/10 12:44:09;;;;;;;0.00;0.00;;;10.20;99.90;;;;;;6213106;23;19997;-74
2022/01/10 12:46:36;;;;;;;0.00;0.00;;;10.10;99.90;;;;;;6211769;23;20020;-74
2022/01/10 12:49:08;;;;;;;0.00;0.00;;;10.10;99.90;;;;;;6211974;23;20217;-74
2022/01/10 12:51:54;;;;;;;0.00;0.00;;;10.10;99.90;;;;;;6213024;23;20015;-74
2022/01/10 12:54:26;;;;;;;0.00;0.00;;;10.10;99.90;;;;;;6209547;23;20016;-75
2022/01/10 12:56:53;;;;;;;0.00;0.00;;;10.10;99.90;;;;;;6213879;23;20016;-75
2022/01/10 12:59:22;;;;;;;0.00;0.00;;;10.10;99.90;;;;;;6212645;23;20012;-74
2022/01/10 13:01:49;;;;;;;0.00;0.00;;;10.10;99.90;;;;;;6213547;23;20491;-75
2022/01/10 13:04:22;;;;;;;0.00;0.00;;;10.20;99.90;;;;;;6213122;23;20043;-75
2022/01/10 13:06:50;;;;;;;0.00;0.00;;;10.20;99.90;;;;;;6212231;23;20026;-76
2022/01/10 13:09:16;;;;;;;0.00;0.00;;;10.20;99.90;;;;;;6214101;23;20001;-76
2022/01/10 13:11:48;;;;;;;0.00;0.00;;;10.30;99.90;;;;;;6213345;23;20329;-76
2022/01/10 13:14:16;;;;;;;0.00;0.00;;;10.20;99.90;;;;;;6213480;23;20028;-75
2022/01/10 13:16:44;;;;;;;0.00;0.00;;;10.30;99.90;;;;;;6213506;23;20376;-76